Portada
METAR-TAF:

METAR-TAF

Aeroports :

Istre, França

latitud: 43-31N, longitud: 004-56E, altitud: 23 m

Observació

L'informe es va fer fa 28 minuts, a les 06:00 UTC
Vent 1 kt amb direcció variable
Temperatura 4°C
Humitat 87%
Pressió 1014 hPa
Visibilitat 10 km o més
sense núvols per sota de 1500 mi sense presència de cumulonimbus.

METAR: LFMI 250600Z AUTO VRB01KT CAVOK 04/02 Q1014 TEMPO 2000 BR

Hora: 07:28 (06:28 UTC)

Pronòstic

L'informe es va fer fa 4 hores i 28 minuts, a les 02:00 UTC
Pronòstic vàlid del 25 a les 03 UTC al 26 a les 03 UTC
Vent 2 kt amb direcció variable
Visibilitat 10 km o més
sense núvols per sota de 1500 mi sense presència de cumulonimbus.
Probabilitat 30% :
Temporalment
l' 25 a les 03 UTC al 25 a les 07 UTC
Visibilitat: 2000 m
boirina
Evolucionant progressivament
l' 25 a les 08 UTC al 25 a les 10 UTC
Vent 13 kt del Oest amb ràfegues de 23 kt

TAF: LFMI 250200Z 2503/2603 VRB02KT CAVOK PROB30 TEMPO 2503/2507 2000 BR BECMG 2508/2510 27013G23KT

Observacions i pronòstics meteorològics de més de 4000 aeroports (METAR i TAF).

Les estacions disponibles són els punts grocs i vermells al mapa.

Posi el ratolí al punt desitjat per veure el nom de l'estació.

Feu clic per veure les observacions i els pronòstics meteorològics.

Per canviar el mapa: feu clic els botons verds amb una creu de color negre per apropar; al botó verd amb un guió per allunyar la imatge; o en les fletxes verdes per a mapes adjacents.


METAR-TAF: